Time;durP1;ratioP1;P1;durP2;ratioP2;P2;SDS_P1;SDS_P2;PMS_P1;PMS_P2;Temp;Humidity;BMP_temperature;BMP_pressure;BME280_temperature;BME280_humidity;BME280_pressure;Samples;Min_cycle;Max_cycle;Signal;HPM_P1;HPM_P2
2024/04/15 00:01:03;;;;;;;37.10;35.22;;;;;;;12.37;100.00;101227.59;5335971;26;20009;-88
2024/04/15 00:03:30;;;;;;;35.25;33.55;;;;;;;12.44;100.00;101232.91;5313381;26;20006;-88
2024/04/15 00:05:59;;;;;;;32.15;29.90;;;;;;;12.24;100.00;101232.09;5312170;26;20007;-87
2024/04/15 00:08:27;;;;;;;32.10;30.50;;;;;;;11.89;100.00;101232.22;5309303;26;20006;-88
2024/04/15 00:11:05;;;;;;;35.63;33.92;;;;;;;12.41;100.00;101236.00;5328209;26;20013;-88
2024/04/15 00:13:31;;;;;;;30.02;28.52;;;;;;;12.71;100.00;101227.53;5309217;26;20010;-88
2024/04/15 00:16:09;;;;;;;31.25;29.67;;;;;;;12.83;100.00;101225.91;5311342;26;20416;-88
2024/04/15 00:18:35;;;;;;;31.05;29.55;;;;;;;12.82;100.00;101225.06;5309802;26;20006;-88
2024/04/15 00:21:08;;;;;;;30.38;28.98;;;;;;;13.24;100.00;101222.91;5342184;26;20012;-88
2024/04/15 00:23:43;;;;;;;30.55;29.05;;;;;;;13.43;100.00;101221.19;5343024;26;20005;-88
2024/04/15 00:26:12;;;;;;;31.73;30.23;;;;;;;12.69;100.00;101224.28;5345610;26;20005;-88
2024/04/15 00:28:38;;;;;;;32.05;30.55;;;;;;;13.06;100.00;101220.09;5343673;26;20082;-88
2024/04/15 00:31:15;;;;;;;31.60;30.20;;;;;;;12.82;100.00;101225.06;5345483;26;20016;-88
2024/04/15 00:33:41;;;;;;;33.22;31.73;;;;;;;12.75;100.00;101226.13;5343037;26;20078;-88
2024/04/15 00:36:10;;;;;;;32.40;30.90;;;;;;;12.77;100.00;101222.22;5345617;26;20004;-82
2024/04/15 00:38:36;;;;;;;33.58;31.88;;;;;;;12.59;100.00;101214.88;5343825;26;20340;-88
2024/04/15 00:41:09;;;;;;;33.65;32.03;;;;;;;12.76;100.00;101217.91;5346033;26;20732;-88
2024/04/15 00:43:35;;;;;;;;;;;;;;;12.79;100.00;101220.16;5343600;26;20088;-82
2024/04/15 00:46:08;;;;;;;33.13;30.88;;;;;;;12.37;100.00;101214.28;5345657;26;19926;-88
2024/04/15 00:48:36;;;;;;;34.70;33.00;;;;;;;12.96;100.00;101214.38;5313974;26;20353;-88
2024/04/15 00:51:05;;;;;;;30.90;29.30;;;;;;;13.04;100.00;101219.47;5310355;26;20906;-88
2024/04/15 00:53:34;;;;;;;32.90;31.40;;;;;;;12.87;100.00;101223.63;5311144;26;20026;-89
2024/04/15 00:56:06;;;;;;;33.22;31.63;;;;;;;13.21;100.00;101219.84;5333608;26;20020;-88
2024/04/15 00:58:50;;;;;;;33.47;31.88;;;;;;;13.50;100.00;101224.69;5323473;26;20849;-88
2024/04/15 01:01:21;;;;;;;33.80;31.80;;;;;;;13.01;100.00;101223.41;5314312;26;20011;-88
2024/04/15 01:03:47;;;;;;;33.50;31.80;;;;;;;13.11;100.00;101214.13;5334728;26;20001;-88
2024/04/15 01:06:16;;;;;;;33.08;31.50;;;;;;;13.24;100.00;101217.56;5347850;26;20445;-81
2024/04/15 01:08:42;;;;;;;36.53;34.83;;;;;;;12.62;100.00;101216.31;5345162;26;20102;-82
2024/04/15 01:11:12;;;;;;;32.72;31.17;;;;;;;12.79;100.00;101214.00;5348203;26;20001;-79
2024/04/15 01:13:40;;;;;;;38.67;36.70;;;;;;;12.43;100.00;101214.47;5345949;26;20004;-82
2024/04/15 01:16:11;;;;;;;36.25;34.17;;;;;;;12.47;100.00;101211.19;5347852;26;20015;-88
2024/04/15 01:18:38;;;;;;;34.40;32.60;;;;;;;11.85;100.00;101212.38;5346072;26;20011;-88
2024/04/15 01:21:07;;;;;;;32.75;31.15;;;;;;;11.95;100.00;101204.00;5348368;26;20041;-88
2024/04/15 01:23:38;;;;;;;31.67;30.08;;;;;;;11.73;100.00;101201.47;5338070;26;20042;-88
2024/04/15 01:26:10;;;;;;;35.83;34.13;;;;;;;11.86;100.00;101209.53;5320560;26;20016;-88
2024/04/15 01:28:36;;;;;;;37.25;35.28;;;;;;;11.50;100.00;101199.19;5345076;26;20001;-88
2024/04/15 01:31:12;;;;;;;34.63;32.92;;;;;;;11.75;100.00;101204.75;5348567;26;19997;-88
2024/04/15 01:33:38;;;;;;;38.22;36.13;;;;;;;11.28;100.00;101198.47;5317409;26;20729;-88
2024/04/15 01:36:07;;;;;;;40.22;38.13;;;;;;;11.56;100.00;101190.41;5348599;26;20349;-88
2024/04/15 01:38:34;;;;;;;34.03;32.33;;;;;;;11.45;100.00;101197.09;5346344;26;19997;-82
2024/04/15 01:41:02;;;;;;;31.77;30.08;;;;;;;11.53;100.00;101196.13;5347892;26;20407;-81
2024/04/15 01:43:31;;;;;;;33.17;31.38;;;;;;;11.36;100.00;101189.50;5345928;26;20096;-82
2024/04/15 01:46:02;;;;;;;34.53;32.83;;;;;;;11.42;100.00;101191.38;5348234;26;20005;-88
2024/04/15 01:48:28;;;;;;;34.05;32.35;;;;;;;11.69;100.00;101195.75;5346608;26;20368;-88
2024/04/15 01:50:59;;;;;;;31.55;29.95;;;;;;;11.33;100.00;101192.56;5348236;26;20464;-88
2024/04/15 01:53:25;;;;;;;34.33;32.63;;;;;;;11.43;100.00;101179.69;5345584;26;20051;-88
2024/04/15 01:56:05;;;;;;;35.50;33.70;;;;;;;11.13;100.00;101197.78;5344456;26;20050;-88
2024/04/15 01:58:34;;;;;;;34.10;32.40;;;;;;;10.99;100.00;101188.94;5346397;26;20091;-88
2024/04/15 02:01:09;;;;;;;34.65;32.85;;;;;;;10.89;100.00;101185.81;5328830;26;20005;-82
2024/04/15 02:03:35;;;;;;;36.72;34.72;;;;;;;10.84;100.00;101191.72;5331420;26;20349;-81
2024/04/15 02:06:04;;;;;;;35.13;33.33;;;;;;;11.13;100.00;101187.16;5347311;26;20505;-81
2024/04/15 02:08:30;;;;;;;38.88;36.97;;;;;;;11.10;100.00;101199.00;5344413;26;20005;-82
2024/04/15 02:10:59;;;;;;;44.65;42.55;;;;;;;10.85;100.00;101200.53;5346603;26;20041;-81
2024/04/15 02:13:25;;;;;;;46.13;44.03;;;;;;;10.68;100.00;101198.19;5345077;26;20015;-80
2024/04/15 02:15:57;;;;;;;41.25;39.15;;;;;;;10.65;100.00;101182.63;5340018;26;20378;-78
2024/04/15 02:18:23;;;;;;;44.17;42.07;;;;;;;10.76;100.00;101191.88;5342549;26;20015;-79
2024/04/15 02:20:53;;;;;;;47.50;45.20;;;;;;;10.69;100.00;101196.34;5346747;26;20755;-79
2024/04/15 02:23:19;;;;;;;41.45;39.45;;;;;;;10.62;100.00;101192.81;5344575;26;20015;-79
2024/04/15 02:25:48;;;;;;;41.70;39.70;;;;;;;10.45;100.00;101181.66;5333180;26;20009;-79
2024/04/15 02:28:15;;;;;;;41.30;39.22;;;;;;;10.39;100.00;101185.91;5311663;26;20002;-87
2024/04/15 02:30:45;;;;;;;42.72;40.72;;;;;;;10.14;100.00;101185.50;5312859;26;20548;-86
2024/04/15 02:33:14;;;;;;;44.55;42.50;;;;;;;10.14;100.00;101182.03;5310720;26;20103;-86
2024/04/15 02:35:44;;;;;;;40.35;38.45;;;;;;;10.08;100.00;101184.41;5342542;26;20091;-86
2024/04/15 02:38:10;;;;;;;40.92;38.72;;;;;;;10.21;100.00;101186.34;5345089;26;20005;-85
2024/04/15 02:40:39;;;;;;;40.90;38.80;;;;;;;10.16;100.00;101188.75;5347847;26;20001;-86
2024/04/15 02:43:06;;;;;;;37.80;36.00;;;;;;;10.41;100.00;101183.06;5344936;26;20074;-86
2024/04/15 02:45:47;;;;;;;46.55;43.92;;;;;;;10.65;100.00;101189.75;5347122;26;20013;-79
2024/04/15 02:48:17;;;;;;;43.63;41.63;;;;;;;10.39;100.00;101191.22;5344614;26;20008;-79
2024/04/15 02:50:46;;;;;;;40.90;39.00;;;;;;;10.56;100.00;101194.44;5347016;26;20005;-79
2024/04/15 02:53:15;;;;;;;41.80;39.90;;;;;;;10.67;100.00;101193.88;5344594;26;20083;-79
2024/04/15 02:55:46;;;;;;;47.65;45.38;;;;;;;10.59;100.00;101198.50;5347392;26;20015;-79
2024/04/15 02:58:12;;;;;;;41.65;39.85;;;;;;;10.52;100.00;101195.81;5327596;26;20341;-79
2024/04/15 03:00:41;;;;;;;35.03;33.30;;;;;;;10.20;100.00;101192.69;5315620;26;20005;-79
2024/04/15 03:03:08;;;;;;;34.97;33.20;;;;;;;10.03;100.00;101193.97;5344871;26;20527;-79
2024/04/15 03:05:46;;;;;;;33.85;32.05;;;;;;;9.82;100.00;101186.81;5346476;26;20001;-79
2024/04/15 03:08:12;;;;;;;33.30;31.60;;;;;;;9.75;100.00;101181.47;5343653;26;20802;-79
2024/04/15 03:10:42;;;;;;;32.58;31.08;;;;;;;9.62;100.00;101173.34;5346619;26;20015;-79
2024/04/15 03:13:08;;;;;;;32.88;31.38;;;;;;;9.83;100.00;101191.09;5344228;26;20841;-79
2024/04/15 03:15:37;;;;;;;35.22;33.45;;;;;;;9.67;100.00;101186.88;5335038;26;20082;-79
2024/04/15 03:18:04;;;;;;;32.53;31.13;;;;;;;8.95;100.00;101182.34;5343856;26;20460;-79
2024/04/15 03:20:33;;;;;;;31.52;30.02;;;;;;;9.62;100.00;101176.84;5346187;26;20066;-79
2024/04/15 03:23:02;;;;;;;33.15;31.65;;;;;;;9.82;100.00;101177.03;5343246;26;20063;-79
2024/04/15 03:25:32;;;;;;;36.72;35.13;;;;;;;9.82;100.00;101181.50;5345454;26;20016;-79
2024/04/15 03:27:58;;;;;;;29.67;28.45;;;;;;;9.79;100.00;101184.56;5343229;26;20058;-79
2024/04/15 03:30:27;;;;;;;28.45;27.15;;;;;;;10.00;100.00;101189.03;5345463;26;20004;-79
2024/04/15 03:32:53;;;;;;;25.02;23.92;;;;;;;9.84;100.00;101182.97;5343738;26;20005;-79
2024/04/15 03:35:22;;;;;;;24.60;23.40;;;;;;;10.15;100.00;101179.16;5346251;26;20001;-79
2024/04/15 03:37:50;;;;;;;43.30;40.47;;;;;;;9.98;100.00;101191.03;5343396;26;20001;-78
2024/04/15 03:40:22;;;;;;;23.20;22.05;;;;;;;9.96;100.00;101185.13;5343598;26;20059;-78
2024/04/15 03:42:48;;;;;;;24.08;22.88;;;;;;;9.90;100.00;101186.72;5343869;26;20049;-78
2024/04/15 03:45:17;;;;;;;24.05;22.85;;;;;;;9.74;100.00;101179.81;5345241;26;19997;-78
2024/04/15 03:47:44;;;;;;;25.65;24.27;;;;;;;9.70;100.00;101183.84;5343442;26;20019;-78
2024/04/15 03:50:13;;;;;;;23.92;22.52;;;;;;;9.62;100.00;101192.75;5345876;26;20329;-78
2024/04/15 03:52:39;;;;;;;25.73;24.30;;;;;;;9.46;100.00;101190.31;5343756;26;20930;-84
2024/04/15 03:55:08;;;;;;;28.15;26.45;;;;;;;9.47;100.00;101184.03;5345987;26;20001;-84
2024/04/15 03:57:37;;;;;;;24.83;23.42;;;;;;;9.35;100.00;101185.53;5343374;26;20051;-84
2024/04/15 04:00:21;;;;;;;21.48;20.27;;;;;;;9.27;100.00;101178.47;5338434;26;19998;-84
2024/04/15 04:02:52;;;;;;;21.75;20.55;;;;;;;9.37;100.00;101186.13;5343443;26;20337;-83
2024/04/15 04:05:21;;;;;;;21.70;20.50;;;;;;;9.47;100.00;101191.13;5341198;26;20001;-84
2024/04/15 04:07:47;;;;;;;21.70;20.40;;;;;;;9.44;100.00;101195.00;5335856;26;20009;-84
2024/04/15 04:10:17;;;;;;;33.08;30.98;;;;;;;9.63;100.00;101197.03;5332521;26;20005;-83
2024/04/15 04:12:46;;;;;;;33.38;31.17;;;;;;;9.49;100.00;101199.72;5309165;26;20041;-84
2024/04/15 04:15:20;;;;;;;22.30;20.88;;;;;;;9.93;100.00;101202.25;5337361;26;20051;-83
2024/04/15 04:17:54;;;;;;;22.60;21.40;;;;;;;10.35;100.00;101195.28;5341038;26;20016;-78
2024/04/15 04:20:23;;;;;;;25.50;24.10;;;;;;;14.86;100.00;101199.19;5344088;26;20449;-80
2024/04/15 04:22:50;;;;;;;24.52;23.13;;;;;;;14.65;100.00;101195.09;5313860;26;20001;-85
2024/04/15 04:25:22;;;;;;;27.77;25.98;;;;;;;16.06;100.00;101194.13;5344913;26;20594;-83
2024/04/15 04:27:52;;;;;;;25.02;23.73;;;;;;;11.64;100.00;101198.16;5319588;26;20013;-79
2024/04/15 04:30:22;;;;;;;26.25;24.75;;;;;;;11.68;100.00;101183.47;5313511;26;20016;-79
2024/04/15 04:32:48;;;;;;;24.33;23.05;;;;;;;11.93;100.00;101190.09;5338681;26;20105;-79
2024/04/15 04:35:22;;;;;;;25.30;23.80;;;;;;;12.24;100.00;101194.81;5347675;26;20014;-79
2024/04/15 04:37:48;;;;;;;25.17;23.67;;;;;;;12.27;100.00;101199.72;5345344;26;20005;-81
2024/04/15 04:40:17;;;;;;;24.90;23.50;;;;;;;12.53;100.00;101204.22;5348156;26;20036;-79
2024/04/15 04:42:44;;;;;;;27.38;25.88;;;;;;;12.79;100.00;101200.69;5316546;26;20473;-79
2024/04/15 04:45:15;;;;;;;26.75;25.30;;;;;;;12.91;100.00;101185.66;5314078;26;20075;-82
2024/04/15 04:47:43;;;;;;;27.48;25.98;;;;;;;12.83;100.00;101183.25;5311222;26;20005;-79
2024/04/15 04:50:12;;;;;;;24.98;23.40;;;;;;;12.85;100.00;101183.84;5315790;26;20042;-80
2024/04/15 04:52:38;;;;;;;27.00;25.40;;;;;;;13.02;100.00;101195.69;5333129;26;20335;-82
2024/04/15 04:55:09;;;;;;;24.90;23.60;;;;;;;13.27;100.00;101187.00;5349078;26;20001;-83
2024/04/15 04:57:35;;;;;;;28.75;26.40;;;;;;;13.29;100.00;101180.44;5330512;26;20022;-82
2024/04/15 05:00:04;;;;;;;25.27;23.77;;;;;;;13.32;100.00;101179.19;5314387;26;20081;-83
2024/04/15 05:02:33;;;;;;;26.38;24.67;;;;;;;13.53;100.00;101180.75;5312404;26;19997;-83
2024/04/15 05:05:02;;;;;;;26.98;25.58;;;;;;;13.66;100.00;101187.84;5314906;26;20446;-82
2024/04/15 05:07:28;;;;;;;24.98;23.67;;;;;;;13.90;100.00;101183.56;5321379;26;20052;-83
2024/04/15 05:09:58;;;;;;;26.13;24.60;;;;;;;14.16;100.00;101190.56;5348863;26;20415;-82
2024/04/15 05:12:25;;;;;;;26.35;24.85;;;;;;;14.32;100.00;101181.19;5346072;26;20100;-82
2024/04/15 05:14:54;;;;;;;29.30;26.48;;;;;;;14.61;100.00;101185.88;5348599;26;20453;-82
2024/04/15 05:17:28;;;;;;;23.83;22.63;;;;;;;14.73;100.00;101187.81;5346376;26;20019;-83
2024/04/15 05:20:00;;;;;;;24.20;23.00;;;;;;;14.74;100.00;101184.13;5326388;26;20044;-82
2024/04/15 05:22:26;;;;;;;26.10;24.63;;;;;;;14.99;100.00;101176.00;5311084;26;20512;-79
2024/04/15 05:24:56;;;;;;;26.15;24.75;;;;;;;15.12;100.00;101182.00;5321337;26;20382;-79
2024/04/15 05:27:22;;;;;;;26.15;24.65;;;;;;;15.22;100.00;101181.50;5346039;26;21059;-79
2024/04/15 05:29:54;;;;;;;24.80;23.40;;;;;;;15.54;100.00;101183.94;5336349;26;20111;-79
2024/04/15 05:32:20;;;;;;;25.10;23.73;;;;;;;15.58;100.00;101175.25;5345303;26;20108;-79
2024/04/15 05:34:51;;;;;;;25.48;24.08;;;;;;;15.67;100.00;101174.91;5327324;26;20009;-83
2024/04/15 05:37:20;;;;;;;29.58;27.88;;;;;;;15.60;100.00;101177.69;5310228;27;20001;-83
2024/04/15 05:39:49;;;;;;;31.30;29.80;;;;;;;15.77;100.00;101167.16;5314008;26;20338;-83
2024/04/15 05:42:15;;;;;;;30.85;29.15;;;;;;;16.16;100.00;101172.94;5333491;26;20344;-83
2024/04/15 05:44:44;;;;;;;28.95;26.48;;;;;;;16.42;100.00;101177.84;5348396;26;20001;-82
2024/04/15 05:47:14;;;;;;;27.45;25.92;;;;;;;16.45;100.00;101169.31;5346048;26;20005;-83
2024/04/15 05:49:42;;;;;;;31.45;29.65;;;;;;;16.48;100.00;101165.38;5348503;26;20009;-83
2024/04/15 05:52:09;;;;;;;29.90;28.20;;;;;;;16.67;100.00;101166.03;5345776;26;20015;-82
2024/04/15 05:54:40;;;;;;;31.67;29.88;;;;;;;16.79;100.00;101164.19;5348341;26;20015;-83
2024/04/15 05:57:10;;;;;;;33.53;31.67;;;;;;;17.07;100.00;101158.06;5346305;26;20068;-83
2024/04/15 05:59:39;;;;;;;32.63;30.83;;;;;;;17.30;100.00;101156.34;5348490;26;20008;-83
2024/04/15 06:02:12;;;;;;;34.75;32.85;;;;;;;17.50;100.00;101156.72;5345965;26;20040;-83
2024/04/15 06:04:41;;;;;;;31.10;29.40;;;;;;;17.56;100.00;101163.00;5347606;26;20019;-83
2024/04/15 06:07:07;;;;;;;31.42;29.63;;;;;;;17.67;100.00;101148.69;5346060;26;20096;-83
2024/04/15 06:09:39;;;;;;;35.22;33.22;;;;;;;17.98;100.00;101154.63;5347435;26;20001;-83
2024/04/15 06:12:08;;;;;;;34.60;32.50;;;;;;;18.19;100.00;101153.06;5345244;26;20019;-83
2024/04/15 06:14:37;;;;;;;36.30;34.20;;;;;;;18.28;100.00;101143.50;5346899;26;20012;-83
2024/04/15 06:17:05;;;;;;;34.40;32.30;;;;;;;18.80;100.00;101143.16;5345360;26;19997;-83
2024/04/15 06:19:33;;;;;;;32.95;31.05;;;;;;;19.29;100.00;101142.38;5347701;26;20005;-83
2024/04/15 06:22:00;;;;;;;33.85;31.85;;;;;;;19.57;100.00;101147.47;5345597;26;20001;-82
2024/04/15 06:24:30;;;;;;;35.70;33.63;;;;;;;19.80;100.00;101149.06;5347208;26;20016;-82
2024/04/15 06:26:57;;;;;;;37.95;35.65;;;;;;;20.25;100.00;101152.38;5328801;26;20001;-83
2024/04/15 06:29:29;;;;;;;37.58;35.28;;;;;;;20.65;100.00;101140.22;5347474;26;20005;-84
2024/04/15 06:31:55;;;;;;;39.65;37.30;;;;;;;20.83;100.00;101149.75;5310603;26;20075;-83
2024/04/15 06:34:29;;;;;;;38.50;36.20;;;;;;;20.92;100.00;101142.75;5312862;26;20013;-83
2024/04/15 06:36:55;;;;;;;43.33;40.78;;;;;;;21.00;100.00;101140.38;5326308;26;20004;-83
2024/04/15 06:39:24;;;;;;;43.33;40.72;;;;;;;21.03;100.00;101137.13;5347400;26;20041;-83
2024/04/15 06:41:50;;;;;;;46.65;43.65;;;;;;;21.19;100.00;101139.88;5344927;26;20050;-83
2024/04/15 06:44:21;;;;;;;45.10;42.40;;;;;;;21.36;100.00;101140.50;5347578;26;20000;-83
2024/04/15 06:46:50;;;;;;;47.67;44.78;;;;;;;21.51;100.00;101136.97;5345563;26;20004;-83
2024/04/15 06:49:28;;;;;;;49.67;46.67;;;;;;;21.64;100.00;101133.75;5346957;26;20104;-83
2024/04/15 06:51:54;;;;;;;47.42;44.42;;;;;;;21.66;100.00;101136.97;5344917;26;20005;-83
2024/04/15 06:54:24;;;;;;;46.80;43.90;;;;;;;21.80;100.00;101129.16;5347577;26;20566;-83
2024/04/15 06:56:59;;;;;;;45.92;42.97;;;;;;;21.97;100.00;101134.28;5313785;26;20002;-84
2024/04/15 06:59:30;;;;;;;47.45;44.45;;;;;;;22.03;100.00;101135.06;5312568;26;20005;-83
2024/04/15 07:01:59;;;;;;;47.20;44.30;;;;;;;22.53;100.00;101133.38;5338373;26;20033;-84
2024/04/15 07:04:28;;;;;;;47.30;44.25;;;;;;;22.39;100.00;101123.16;5325188;26;20004;-84
2024/04/15 07:06:54;;;;;;;46.30;43.30;;;;;;;22.26;100.00;101120.19;5323735;26;20001;-83
2024/04/15 07:09:25;;;;;;;48.90;45.80;;;;;;;21.96;100.00;101113.72;5346859;26;20075;-83
2024/04/15 07:11:55;;;;;;;46.47;43.55;;;;;;;22.84;100.00;101124.06;5345112;26;20444;-84
2024/04/15 07:14:25;;;;;;;42.03;39.42;;;;;;;22.88;100.00;101116.19;5347237;26;20019;-83
2024/04/15 07:16:51;;;;;;;42.08;39.67;;;;;;;22.14;100.00;101115.84;5345178;26;20005;-79
2024/04/15 07:19:24;;;;;;;44.30;41.40;;;;;;;22.38;100.00;101113.41;5347599;26;20009;-84
2024/04/15 07:21:51;;;;;;;45.90;43.10;;;;;;;22.96;100.00;101120.22;5344908;26;20001;-83
2024/04/15 07:24:20;;;;;;;43.80;41.20;;;;;;;21.98;100.00;101106.16;5346980;26;20078;-84
2024/04/15 07:26:52;;;;;;;42.00;39.50;;;;;;;22.22;100.00;101111.03;5342972;26;20004;-84
2024/04/15 07:29:21;;;;;;;46.25;41.95;;;;;;;22.63;100.00;101112.53;5342926;26;20001;-83
2024/04/15 07:31:47;;;;;;;44.55;41.75;;;;;;;22.04;100.00;101115.06;5344812;26;20005;-84
2024/04/15 07:34:16;;;;;;;44.13;41.33;;;;;;;22.13;100.00;101114.25;5347185;26;20016;-85
2024/04/15 07:36:48;;;;;;;44.78;42.15;;;;;;;21.42;100.00;101109.69;5344808;26;20326;-85
2024/04/15 07:39:18;;;;;;;45.45;42.75;;;;;;;21.44;100.00;101102.13;5347880;26;20016;-83
2024/04/15 07:41:45;;;;;;;43.10;40.60;;;;;;;21.66;100.00;101106.44;5315918;26;20037;-85
2024/04/15 07:44:20;;;;;;;47.22;44.42;;;;;;;22.95;100.00;101103.19;5347626;26;20019;-85
2024/04/15 07:46:46;;;;;;;49.05;46.15;;;;;;;23.40;100.00;101093.13;5344755;26;20070;-84
2024/04/15 07:49:15;;;;;;;44.90;42.20;;;;;;;23.00;100.00;101088.81;5343412;26;19997;-83
2024/04/15 07:51:44;;;;;;;28.42;26.63;;;;;;;22.71;100.00;101091.34;5329799;26;20830;-80
2024/04/15 07:54:18;;;;;;;27.95;26.15;;;;;;;22.46;100.00;101086.88;5345520;26;20009;-79
2024/04/15 07:56:54;;;;;;;28.88;27.08;;;;;;;23.07;100.00;101094.72;5339208;26;20097;-79
2024/04/15 07:59:22;;;;;;;28.45;26.65;;;;;;;23.34;100.00;101086.13;5344989;26;20087;-79
2024/04/15 08:01:49;;;;;;;32.55;30.65;;;;;;;23.32;100.00;101083.69;5308322;26;20005;-79
2024/04/15 08:04:18;;;;;;;31.38;29.38;;;;;;;24.39;90.34;101084.63;5310366;27;20048;-79
2024/04/15 08:06:44;;;;;;;31.27;29.27;;;;;;;24.45;84.46;101083.50;5308792;27;20454;-79
2024/04/15 08:09:22;;;;;;;30.45;28.45;;;;;;;24.28;88.64;101076.88;5310016;27;20017;-79
2024/04/15 08:11:49;;;;;;;34.42;32.22;;;;;;;24.42;93.36;101077.84;5334499;26;20377;-79
2024/04/15 08:14:18;;;;;;;34.70;32.47;;;;;;;24.85;89.24;101075.09;5345042;26;20001;-80
2024/04/15 08:16:44;;;;;;;34.08;31.88;;;;;;;24.59;84.24;101069.19;5341361;26;20005;-79
2024/04/15 08:19:13;;;;;;;35.25;32.95;;;;;;;25.31;88.51;101060.84;5344168;26;20404;-79
2024/04/15 08:21:39;;;;;;;36.03;33.63;;;;;;;24.85;78.13;101064.22;5327974;26;20020;-80
2024/04/15 08:24:08;;;;;;;36.33;33.92;;;;;;;24.42;98.13;101062.34;5340041;26;20005;-79
2024/04/15 08:26:44;;;;;;;36.72;34.33;;;;;;;25.58;88.80;101055.50;5328911;26;20070;-79
2024/04/15 08:29:13;;;;;;;36.65;34.35;;;;;;;25.15;85.21;101054.06;5345168;26;20001;-80
2024/04/15 08:31:39;;;;;;;35.63;33.22;;;;;;;25.32;85.92;101052.38;5331268;26;20001;-79
2024/04/15 08:34:08;;;;;;;94.35;89.55;;;;;;;25.24;99.93;101053.06;5334922;26;20001;-80
2024/04/15 08:36:34;;;;;;;98.93;93.93;;;;;;;25.68;81.95;101040.91;5308153;26;20002;-79
2024/04/15 08:39:06;;;;;;;114.63;109.03;;;;;;;25.59;73.92;101035.34;5341827;26;20001;-79
2024/04/15 08:41:50;;;;;;;41.28;38.58;;;;;;;24.91;87.58;101038.59;5342564;26;20008;-79
2024/04/15 08:44:27;;;;;;;39.72;37.13;;;;;;;25.06;86.87;101041.09;5345042;26;20013;-82
2024/04/15 08:46:58;;;;;;;35.78;33.13;;;;;;;24.80;100.00;101040.66;5331620;26;20005;-80
2024/04/15 08:49:27;;;;;;;114.57;109.07;;;;;;;26.04;85.93;101030.19;5346206;26;20752;-82
2024/04/15 08:51:55;;;;;;;58.35;54.90;;;;;;;25.13;82.24;101035.31;5343135;26;20001;-79
2024/04/15 08:54:24;;;;;;;34.75;32.35;;;;;;;24.74;91.54;101033.69;5345400;26;20005;-83
2024/04/15 08:57:01;;;;;;;33.70;31.33;;;;;;;25.28;88.74;101023.38;5342372;26;20086;-83
2024/04/15 08:59:33;;;;;;;35.70;33.20;;;;;;;23.29;100.00;101016.50;5345733;26;20032;-80
2024/04/15 09:01:59;;;;;;;38.00;35.40;;;;;;;24.20;100.00;101007.75;5343315;26;20082;-80
2024/04/15 09:04:28;;;;;;;37.95;35.65;;;;;;;23.72;100.00;101018.59;5345884;26;20001;-80
2024/04/15 09:06:54;;;;;;;35.28;33.08;;;;;;;25.97;97.78;101008.03;5342092;26;20009;-83
2024/04/15 09:09:24;;;;;;;45.63;42.83;;;;;;;24.53;100.00;101006.00;5344653;26;20041;-89
2024/04/15 09:11:52;;;;;;;51.50;48.75;;;;;;;26.36;84.68;101006.69;5338258;26;20078;-89
2024/04/15 09:14:23;;;;;;;72.82;69.13;;;;;;;27.74;73.44;101003.38;5345437;26;20379;-79
2024/04/15 09:16:52;;;;;;;85.00;80.78;;;;;;;27.81;62.04;101001.03;5346686;26;20005;-79
2024/04/15 09:19:26;;;;;;;57.85;54.67;;;;;;;26.59;81.36;101002.09;5348541;26;20001;-85
2024/04/15 09:21:59;;;;;;;45.58;42.30;;;;;;;26.64;82.08;100996.56;5347368;26;20019;-85
2024/04/15 09:24:29;;;;;;;44.53;41.55;;;;;;;27.88;63.48;100978.75;5323701;26;20014;-85
2024/04/15 09:26:55;;;;;;;51.95;48.65;;;;;;;27.58;61.75;100985.81;5344237;26;20096;-85
2024/04/15 09:29:24;;;;;;;51.03;48.03;;;;;;;28.53;55.31;100972.47;5327439;26;20075;-85
2024/04/15 09:31:53;;;;;;;46.95;44.15;;;;;;;29.05;50.73;100962.63;5312956;26;20020;-85
2024/04/15 09:34:23;;;;;;;43.15;40.45;;;;;;;27.70;69.71;100977.84;5329556;26;20016;-85
2024/04/15 09:36:51;;;;;;;48.92;45.97;;;;;;;28.43;57.08;100961.06;5346071;26;20055;-86
2024/04/15 09:39:23;;;;;;;51.97;48.97;;;;;;;26.11;70.46;100966.38;5332739;26;20049;-84
2024/04/15 09:41:50;;;;;;;;;;;;;;;24.85;94.32;100964.53;5311927;26;20016;-85
2024/04/15 09:44:20;;;;;;;38.08;35.58;;;;;;;24.47;99.15;100957.50;5325773;26;19980;-85
2024/04/15 09:46:47;;;;;;;39.72;37.13;;;;;;;25.27;90.17;100951.13;5339586;26;20008;-85
2024/04/15 09:49:32;;;;;;;45.72;42.83;;;;;;;28.43;66.06;100937.28;5331203;26;20369;-86
2024/04/15 09:52:03;;;;;;;59.90;56.50;;;;;;;25.89;100.00;100932.53;5347001;26;20005;-85
2024/04/15 09:54:33;;;;;;;45.87;43.07;;;;;;;25.00;100.00;100927.38;5348471;26;20000;-85
2024/04/15 09:57:05;;;;;;;39.78;37.28;;;;;;;28.82;61.12;100916.34;5345414;26;20005;-85
2024/04/15 09:59:36;;;;;;;43.17;40.58;;;;;;;29.55;52.11;100916.31;5347806;26;20984;-85
2024/04/15 10:02:09;;;;;;;47.50;44.67;;;;;;;28.57;48.02;100909.00;5345254;26;20015;-85
2024/04/15 10:04:47;;;;;;;48.45;45.53;;;;;;;29.57;49.47;100910.50;5347860;26;19997;-86
2024/04/15 10:07:15;;;;;;;53.67;50.38;;;;;;;26.36;67.63;100910.59;5345420;26;20008;-86
2024/04/15 10:09:44;;;;;;;56.58;53.17;;;;;;;27.66;51.22;100902.38;5348104;26;20727;-80
2024/04/15 10:12:10;;;;;;;67.10;63.30;;;;;;;29.25;49.75;100898.25;5345076;26;20009;-79
2024/04/15 10:14:39;;;;;;;62.13;58.42;;;;;;;29.69;48.58;100899.69;5338601;26;20013;-80
2024/04/15 10:17:05;;;;;;;62.63;59.03;;;;;;;27.66;54.26;100894.22;5345433;26;20016;-86
2024/04/15 10:19:49;;;;;;;52.60;49.40;;;;;;;30.97;44.28;100878.19;5348724;26;20041;-86
2024/04/15 10:22:16;;;;;;;58.08;54.28;;;;;;;30.99;43.22;100875.91;5312235;26;20075;-86
2024/04/15 10:24:45;;;;;;;49.90;46.70;;;;;;;29.62;46.93;100875.59;5317717;26;20471;-86
2024/04/15 10:27:13;;;;;;;48.13;44.97;;;;;;;30.82;41.99;100865.16;5346006;26;20041;-86
2024/04/15 10:29:43;;;;;;;42.75;39.85;;;;;;;29.76;47.48;100867.13;5348046;26;20001;-85
2024/04/15 10:32:10;;;;;;;43.97;40.97;;;;;;;30.78;45.67;100843.88;5345757;26;20349;-86
2024/04/15 10:34:43;;;;;;;51.47;48.28;;;;;;;30.23;47.43;100855.19;5348421;26;20055;-86
2024/04/15 10:37:14;;;;;;;50.20;47.00;;;;;;;30.46;49.53;100855.63;5340530;26;20001;-86
2024/04/15 10:39:47;;;;;;;53.58;50.17;;;;;;;28.37;51.76;100862.06;5348389;26;20016;-85
2024/04/15 10:42:13;;;;;;;42.80;39.80;;;;;;;27.26;58.91;100847.88;5321409;26;20341;-85
2024/04/15 10:44:42;;;;;;;44.17;41.17;;;;;;;29.45;49.65;100840.06;5314027;26;20100;-86
2024/04/15 10:47:14;;;;;;;46.30;43.30;;;;;;;29.56;45.23;100837.75;5325689;26;20015;-86
2024/04/15 10:49:42;;;;;;;48.40;45.40;;;;;;;29.81;45.54;100845.03;5348206;26;20001;-86
2024/04/15 10:52:09;;;;;;;43.45;40.63;;;;;;;28.01;52.94;100824.94;5327975;26;20441;-86
2024/04/15 10:54:40;;;;;;;71.72;67.53;;;;;;;27.11;63.63;100821.81;5313449;26;20006;-86
2024/04/15 10:57:08;;;;;;;76.90;72.60;;;;;;;25.36;78.14;100825.06;5329837;26;20005;-86
2024/04/15 10:59:37;;;;;;;83.78;79.07;;;;;;;24.65;88.99;100829.06;5348088;26;20005;-86
2024/04/15 11:02:07;;;;;;;79.15;74.65;;;;;;;27.11;66.81;100814.47;5345414;26;19997;-85
2024/04/15 11:04:36;;;;;;;66.93;62.92;;;;;;;25.50;93.49;100824.25;5348245;26;20009;-86
2024/04/15 11:07:04;;;;;;;71.55;67.40;;;;;;;25.53;79.33;100812.75;5345172;26;19997;-87
2024/04/15 11:09:42;;;;;;;83.78;79.07;;;;;;;26.51;75.88;100804.06;5347491;26;20423;-86
2024/04/15 11:12:09;;;;;;;86.13;81.35;;;;;;;29.43;47.60;100790.34;5336691;26;20001;-86
2024/04/15 11:14:38;;;;;;;53.17;49.88;;;;;;;27.98;59.34;100794.78;5312857;26;20083;-80